createdAt,value
2023-02-09T00:01:25.583Z,-0.70
2023-02-09T00:03:58.839Z,-0.71
2023-02-09T00:06:30.399Z,-0.71
2023-02-09T00:09:02.637Z,-0.71
2023-02-09T00:11:47.014Z,-0.66
2023-02-09T00:14:22.106Z,-0.58
2023-02-09T00:16:53.559Z,-0.56
2023-02-09T00:19:26.209Z,-0.66
2023-02-09T00:21:56.893Z,-0.63
2023-02-09T00:24:27.828Z,-0.57
2023-02-09T00:26:58.202Z,-0.48
2023-02-09T00:29:28.474Z,-0.37
2023-02-09T00:31:58.865Z,-0.29
2023-02-09T00:34:31.859Z,-0.26
2023-02-09T00:37:02.189Z,-0.27
2023-02-09T00:39:33.472Z,-0.30
2023-02-09T00:42:11.280Z,-0.20
2023-02-09T00:44:43.542Z,-0.20
2023-02-09T00:47:13.923Z,-0.29
2023-02-09T00:49:46.938Z,-0.26
2023-02-09T00:52:17.198Z,-0.27
2023-02-09T00:54:47.869Z,-0.36
2023-02-09T00:57:20.113Z,-0.39
2023-02-09T00:59:50.521Z,-0.43
2023-02-09T01:02:20.849Z,-0.46
2023-02-09T01:04:54.029Z,-0.37
2023-02-09T01:07:24.368Z,-0.49
2023-02-09T01:09:56.041Z,-0.51
2023-02-09T01:12:26.380Z,-0.57
2023-02-09T01:14:56.740Z,-0.42
2023-02-09T01:17:28.160Z,-0.38
2023-02-09T01:20:01.418Z,-0.30
2023-02-09T01:22:31.742Z,-0.34
2023-02-09T01:25:02.047Z,-0.42
2023-02-09T01:27:32.457Z,-0.61
2023-02-09T01:30:03.384Z,-0.66
2023-02-09T01:32:33.772Z,-0.72
2023-02-09T01:35:07.077Z,-0.72
2023-02-09T01:37:38.506Z,-0.74
2023-02-09T01:40:11.462Z,-0.80
2023-02-09T01:42:42.262Z,-0.83
2023-02-09T01:45:28.523Z,-0.89
2023-02-09T01:48:04.913Z,-1.00
2023-02-09T01:50:41.988Z,-1.03
2023-02-09T01:53:13.767Z,-1.02
2023-02-09T01:55:49.891Z,-1.05
2023-02-09T01:58:23.557Z,-1.12
2023-02-09T02:00:54.192Z,-1.12
2023-02-09T02:03:29.127Z,-1.08
2023-02-09T02:06:07.556Z,-1.07
2023-02-09T02:08:43.110Z,-1.03
2023-02-09T02:11:16.133Z,-1.01
2023-02-09T02:13:46.377Z,-0.97
2023-02-09T02:16:46.542Z,-1.07
2023-02-09T02:20:11.158Z,-1.14
2023-02-09T02:23:05.742Z,-1.12
2023-02-09T02:26:18.385Z,-1.12
2023-02-09T02:29:10.937Z,-1.14
2023-02-09T02:32:23.776Z,-1.23
2023-02-09T02:35:02.063Z,-1.21
2023-02-09T02:37:48.303Z,-1.26
2023-02-09T02:40:32.478Z,-1.27
2023-02-09T02:43:12.203Z,-1.21
2023-02-09T02:45:47.130Z,-1.23
2023-02-09T02:48:32.303Z,-1.30
2023-02-09T02:51:08.633Z,-1.36
2023-02-09T02:53:44.118Z,-1.31
2023-02-09T02:56:19.544Z,-1.33
2023-02-09T02:58:52.310Z,-1.35
2023-02-09T03:01:28.049Z,-1.36
2023-02-09T03:04:03.064Z,-1.34
2023-02-09T03:06:34.991Z,-1.38
2023-02-09T03:09:05.440Z,-1.32
2023-02-09T03:11:40.693Z,-1.26
2023-02-09T03:14:42.929Z,-1.24
2023-02-09T03:17:25.573Z,-1.32
2023-02-09T03:20:08.241Z,-1.43
2023-02-09T03:22:42.965Z,-1.50
2023-02-09T03:25:19.100Z,-1.46
2023-02-09T03:27:56.814Z,-1.46
2023-02-09T03:30:28.480Z,-1.47
2023-02-09T03:32:59.216Z,-1.45
2023-02-09T03:35:41.382Z,-1.49
2023-02-09T03:38:11.744Z,-1.43
2023-02-09T03:40:42.114Z,-1.46
2023-02-09T03:43:13.089Z,-1.57
2023-02-09T03:45:43.861Z,-1.54
2023-02-09T03:48:14.484Z,-1.47
2023-02-09T03:50:47.678Z,-1.50
2023-02-09T03:53:17.987Z,-1.39
2023-02-09T03:55:49.011Z,-1.42
2023-02-09T03:58:19.588Z,-1.46
2023-02-09T04:00:50.260Z,-1.54
2023-02-09T04:03:20.672Z,-1.68
2023-02-09T04:05:53.565Z,-1.60
2023-02-09T04:08:23.887Z,-1.47
2023-02-09T04:10:54.155Z,-1.42
2023-02-09T04:13:24.489Z,-1.40
2023-02-09T04:15:55.508Z,-1.37
2023-02-09T04:18:25.910Z,-1.47
2023-02-09T04:20:58.806Z,-1.45
2023-02-09T04:23:29.140Z,-1.43
2023-02-09T04:25:59.526Z,-1.43
2023-02-09T04:28:29.854Z,-1.35
2023-02-09T04:31:00.400Z,-1.35
2023-02-09T04:33:30.811Z,-1.41
2023-02-09T04:36:03.810Z,-1.44
2023-02-09T04:38:34.574Z,-1.48
2023-02-09T04:41:06.831Z,-1.53
2023-02-09T04:43:37.321Z,-1.54
2023-02-09T04:46:08.096Z,-1.51
2023-02-09T04:48:38.592Z,-1.51
2023-02-09T04:51:12.159Z,-1.54
2023-02-09T04:53:42.646Z,-1.58
2023-02-09T04:56:17.802Z,-1.58
2023-02-09T04:59:00.817Z,-1.56
2023-02-09T05:01:32.683Z,-1.54
2023-02-09T05:04:03.083Z,-1.53
2023-02-09T05:06:36.032Z,-1.62
2023-02-09T05:09:06.369Z,-1.75
2023-02-09T05:11:37.003Z,-1.76
2023-02-09T05:14:07.952Z,-1.79
2023-02-09T05:16:39.362Z,-1.82
2023-02-09T05:19:09.918Z,-1.90
2023-02-09T05:21:43.065Z,-1.94
2023-02-09T05:24:13.556Z,-1.96
2023-02-09T05:26:43.954Z,-1.97
2023-02-09T05:29:14.241Z,-1.93
2023-02-09T05:31:44.642Z,-1.97
2023-02-09T05:34:15.046Z,-1.94
2023-02-09T05:36:47.961Z,-1.86
2023-02-09T05:39:18.318Z,-1.76
2023-02-09T05:42:00.926Z,-1.78
2023-02-09T05:44:31.318Z,-1.82
2023-02-09T05:47:01.676Z,-1.81
2023-02-09T05:49:32.075Z,-1.81
2023-02-09T05:52:05.081Z,-1.73
2023-02-09T05:54:35.692Z,-1.69
2023-02-09T05:57:06.971Z,-1.75
2023-02-09T05:59:37.111Z,-1.91
2023-02-09T06:02:07.768Z,-2.04
2023-02-09T06:04:38.362Z,-2.07
2023-02-09T06:07:12.095Z,-2.13
2023-02-09T06:09:42.549Z,-2.14
2023-02-09T06:12:15.856Z,-2.22
2023-02-09T06:14:46.168Z,-2.27
2023-02-09T06:17:16.536Z,-2.22
2023-02-09T06:19:47.199Z,-2.26
2023-02-09T06:22:20.238Z,-2.44
2023-02-09T06:24:50.573Z,-2.54
2023-02-09T06:27:20.889Z,-2.50
2023-02-09T06:29:51.277Z,-2.65
2023-02-09T06:32:21.612Z,-2.66
2023-02-09T06:34:51.957Z,-2.54
2023-02-09T06:37:24.937Z,-2.55
2023-02-09T06:39:55.316Z,-2.53
2023-02-09T06:42:43.828Z,-2.42
2023-02-09T06:45:14.797Z,-2.50
2023-02-09T06:47:45.947Z,-2.60
2023-02-09T06:50:18.569Z,-2.58
2023-02-09T06:52:51.825Z,-2.54
2023-02-09T06:55:22.505Z,-2.54
2023-02-09T06:57:53.008Z,-2.49
2023-02-09T07:00:24.953Z,-2.45
2023-02-09T07:02:56.008Z,-2.41
2023-02-09T07:05:26.447Z,-2.30
2023-02-09T07:07:59.501Z,-2.19
2023-02-09T07:10:30.095Z,-2.07
2023-02-09T07:13:01.198Z,-1.93
2023-02-09T07:15:31.737Z,-1.81
2023-02-09T07:18:02.118Z,-1.67
2023-02-09T07:20:32.492Z,-1.67
2023-02-09T07:23:06.417Z,-1.56
2023-02-09T07:25:38.118Z,-1.40
2023-02-09T07:28:08.478Z,-1.18
2023-02-09T07:30:41.214Z,-0.94
2023-02-09T07:33:11.827Z,-0.69
2023-02-09T07:35:43.659Z,-0.29
2023-02-09T07:38:16.794Z,-0.09
2023-02-09T07:40:47.994Z,0.06
2023-02-09T07:43:18.449Z,0.50
2023-02-09T07:45:48.804Z,0.92
2023-02-09T07:48:20.421Z,1.05
2023-02-09T07:50:54.095Z,1.38
2023-02-09T07:53:27.491Z,1.63
2023-02-09T07:55:57.999Z,1.84
2023-02-09T07:58:28.314Z,1.80
2023-02-09T08:00:59.928Z,2.11
2023-02-09T08:03:30.423Z,2.78
2023-02-09T08:06:05.901Z,2.79
2023-02-09T08:08:39.124Z,3.07
2023-02-09T08:11:09.471Z,3.22
2023-02-09T08:13:41.716Z,2.87
2023-02-09T08:16:16.482Z,2.86
2023-02-09T08:18:54.254Z,3.27
2023-02-09T08:21:25.689Z,3.90
2023-02-09T08:24:00.041Z,4.41
2023-02-09T08:26:30.614Z,4.81
2023-02-09T08:29:01.240Z,5.31
2023-02-09T08:31:31.893Z,5.51
2023-02-09T08:34:02.346Z,5.94
2023-02-09T08:36:37.658Z,6.09
2023-02-09T08:39:10.626Z,5.80
2023-02-09T08:41:41.036Z,6.90
2023-02-09T08:44:11.468Z,7.74
2023-02-09T08:46:41.953Z,8.08
2023-02-09T08:49:13.277Z,8.58
2023-02-09T08:51:43.670Z,8.77
2023-02-09T08:54:16.714Z,9.40
2023-02-09T08:56:47.194Z,9.50
2023-02-09T08:59:19.976Z,9.06
2023-02-09T09:01:50.548Z,7.77
2023-02-09T09:04:21.349Z,6.88
2023-02-09T09:06:51.924Z,6.60
2023-02-09T09:09:24.971Z,6.58
2023-02-09T09:11:55.265Z,7.91
2023-02-09T09:14:26.744Z,8.95
2023-02-09T09:16:59.989Z,9.47
2023-02-09T09:19:31.192Z,8.93
2023-02-09T09:22:03.562Z,8.18
2023-02-09T09:24:40.834Z,8.68
2023-02-09T09:27:13.610Z,8.65
2023-02-09T09:29:44.028Z,9.57
2023-02-09T09:32:16.327Z,9.53
2023-02-09T09:34:47.965Z,9.27
2023-02-09T09:37:18.236Z,9.61
2023-02-09T09:39:51.826Z,9.13
2023-02-09T09:42:31.403Z,9.15
2023-02-09T09:45:02.261Z,9.59
2023-02-09T09:47:40.753Z,8.93
2023-02-09T09:50:20.220Z,9.01
2023-02-09T09:52:55.221Z,9.06
2023-02-09T09:55:30.836Z,8.88
2023-02-09T09:58:05.732Z,8.84
2023-02-09T10:00:40.408Z,8.75
2023-02-09T10:03:18.438Z,8.63
2023-02-09T10:05:52.231Z,8.90
2023-02-09T10:08:31.610Z,8.84
2023-02-09T10:11:09.002Z,8.55
2023-02-09T10:13:46.846Z,8.53
2023-02-09T10:16:21.273Z,8.75
2023-02-09T10:18:54.349Z,8.62
2023-02-09T10:21:26.974Z,8.56
2023-02-09T10:24:15.089Z,8.69
2023-02-09T10:27:08.363Z,9.16
2023-02-09T10:29:39.831Z,8.93
2023-02-09T10:32:18.915Z,8.96
2023-02-09T10:34:52.704Z,9.33
2023-02-09T10:37:30.414Z,9.95
2023-02-09T10:40:12.586Z,9.78
2023-02-09T10:42:58.309Z,10.21
2023-02-09T10:45:35.182Z,10.50
2023-02-09T10:48:20.210Z,10.51
2023-02-09T10:50:56.922Z,10.80
2023-02-09T10:53:31.133Z,10.92
2023-02-09T10:56:08.870Z,11.22
2023-02-09T10:58:41.891Z,11.71
2023-02-09T11:01:22.705Z,11.81
2023-02-09T11:04:05.947Z,12.21
2023-02-09T11:06:45.778Z,12.61
2023-02-09T11:09:20.521Z,13.53
2023-02-09T11:11:50.968Z,13.48
2023-02-09T11:14:24.421Z,14.38
2023-02-09T11:17:18.041Z,14.92
2023-02-09T11:20:11.686Z,14.61
2023-02-09T11:23:32.633Z,15.39
2023-02-09T11:26:07.780Z,15.59
2023-02-09T11:28:50.265Z,16.06
2023-02-09T11:31:57.456Z,16.07
2023-02-09T11:35:04.687Z,16.18
2023-02-09T11:37:54.990Z,17.27
2023-02-09T11:40:35.364Z,17.70
2023-02-09T11:43:16.605Z,18.33
2023-02-09T11:45:49.920Z,19.56
2023-02-09T11:48:29.110Z,20.35
2023-02-09T11:51:08.462Z,20.71
2023-02-09T11:53:48.321Z,20.96
2023-02-09T11:56:23.578Z,21.44
2023-02-09T11:59:01.257Z,20.95
2023-02-09T12:01:43.236Z,21.59
2023-02-09T12:04:23.782Z,22.02
2023-02-09T12:06:57.674Z,21.31
2023-02-09T12:09:50.124Z,21.85
2023-02-09T12:12:30.731Z,21.59
2023-02-09T12:15:14.700Z,22.29
2023-02-09T12:17:51.425Z,22.22
2023-02-09T12:20:36.328Z,22.37
2023-02-09T12:23:10.769Z,20.95
2023-02-09T12:25:54.642Z,20.39
2023-02-09T12:28:50.076Z,20.58
2023-02-09T12:31:28.121Z,21.48
2023-02-09T12:34:24.422Z,21.61
2023-02-09T12:37:28.457Z,22.02
2023-02-09T12:40:26.726Z,22.52
2023-02-09T12:43:32.652Z,23.56
2023-02-09T12:46:27.446Z,23.97
2023-02-09T12:49:21.000Z,25.09
2023-02-09T12:52:09.519Z,24.64
2023-02-09T12:54:51.560Z,25.07
2023-02-09T12:57:55.124Z,25.61
2023-02-09T13:00:59.738Z,25.95
2023-02-09T13:03:33.061Z,26.02
2023-02-09T13:06:05.182Z,26.88
2023-02-09T13:08:42.054Z,26.70
2023-02-09T13:11:29.779Z,27.14
2023-02-09T13:14:07.578Z,26.32
2023-02-09T13:17:28.296Z,26.74
2023-02-09T13:21:00.425Z,26.38
2023-02-09T13:23:37.322Z,25.93
2023-02-09T13:26:24.946Z,25.30
2023-02-09T13:29:20.529Z,23.41
2023-02-09T13:32:05.400Z,22.62
2023-02-09T13:34:41.450Z,19.95
2023-02-09T13:37:26.954Z,17.70
2023-02-09T13:40:01.129Z,16.42
2023-02-09T13:42:39.183Z,15.10
2023-02-09T13:45:21.359Z,14.96
2023-02-09T13:47:51.772Z,14.77
2023-02-09T13:50:24.843Z,14.98
2023-02-09T13:52:55.604Z,15.57
2023-02-09T13:55:29.214Z,15.46
2023-02-09T13:58:07.258Z,15.37
2023-02-09T14:00:47.419Z,15.60
2023-02-09T14:03:21.616Z,15.64
2023-02-09T14:05:57.144Z,16.51
2023-02-09T14:08:30.534Z,17.29
2023-02-09T14:11:09.732Z,17.36
2023-02-09T14:13:47.975Z,17.36
2023-02-09T14:16:20.706Z,17.22
2023-02-09T14:18:54.985Z,16.88
2023-02-09T14:21:37.387Z,16.52
2023-02-09T14:24:27.274Z,16.18
2023-02-09T14:27:05.605Z,16.14
2023-02-09T14:29:39.920Z,15.98
2023-02-09T14:32:32.907Z,15.27
2023-02-09T14:35:20.230Z,14.75
2023-02-09T14:37:53.037Z,14.12
2023-02-09T14:40:34.349Z,13.22
2023-02-09T14:43:07.299Z,12.75
2023-02-09T14:45:48.039Z,12.63
2023-02-09T14:48:20.480Z,12.52
2023-02-09T14:50:57.617Z,12.22
2023-02-09T14:53:31.975Z,12.11
2023-02-09T14:56:02.478Z,11.76
2023-02-09T14:58:35.255Z,11.18
2023-02-09T15:01:09.232Z,10.99
2023-02-09T15:03:39.793Z,11.27
2023-02-09T15:06:10.602Z,10.80
2023-02-09T15:08:41.820Z,10.34
2023-02-09T15:11:32.520Z,10.10
2023-02-09T15:14:06.637Z,10.10
2023-02-09T15:16:39.673Z,9.50
2023-02-09T15:19:17.084Z,9.12
2023-02-09T15:22:05.329Z,8.80
2023-02-09T15:24:37.308Z,8.50
2023-02-09T15:27:07.944Z,8.02
2023-02-09T15:29:38.291Z,7.54
2023-02-09T15:32:18.561Z,6.90
2023-02-09T15:34:49.447Z,6.71
2023-02-09T15:37:25.516Z,6.52
2023-02-09T15:40:00.017Z,6.39
2023-02-09T15:42:42.976Z,6.11
2023-02-09T15:45:35.019Z,6.00
2023-02-09T15:48:08.696Z,5.88
2023-02-09T15:50:41.985Z,5.68
2023-02-09T15:53:18.776Z,5.57
2023-02-09T15:55:50.262Z,5.42
2023-02-09T15:58:22.590Z,5.27
2023-02-09T16:00:52.969Z,5.20
2023-02-09T16:03:26.015Z,5.04
2023-02-09T16:06:03.806Z,4.93
2023-02-09T16:08:37.608Z,4.92
2023-02-09T16:11:09.642Z,4.86
2023-02-09T16:13:40.096Z,4.74
2023-02-09T16:16:17.091Z,4.69
2023-02-09T16:18:50.546Z,4.72
2023-02-09T16:21:27.302Z,4.50
2023-02-09T16:24:00.465Z,4.41
2023-02-09T16:26:32.405Z,4.39
2023-02-09T16:29:02.966Z,4.39
2023-02-09T16:31:34.388Z,4.26
2023-02-09T16:34:07.665Z,4.27
2023-02-09T16:36:38.031Z,4.21
2023-02-09T16:39:17.676Z,4.07
2023-02-09T16:41:51.601Z,4.01
2023-02-09T16:44:25.554Z,4.00
2023-02-09T16:46:58.442Z,3.93
2023-02-09T16:49:40.154Z,3.92
2023-02-09T16:52:19.418Z,3.85
2023-02-09T16:54:53.081Z,3.92
2023-02-09T16:57:25.978Z,3.94
2023-02-09T16:59:57.443Z,3.86
2023-02-09T17:02:40.861Z,3.78
2023-02-09T17:05:21.802Z,3.69
2023-02-09T17:07:58.156Z,3.70
2023-02-09T17:10:32.377Z,3.67
2023-02-09T17:13:04.780Z,3.64
2023-02-09T17:15:42.962Z,3.44
2023-02-09T17:18:21.965Z,3.29
2023-02-09T17:20:59.334Z,3.25
2023-02-09T17:23:31.744Z,3.35
2023-02-09T17:26:02.503Z,3.30
2023-02-09T17:28:33.193Z,3.28
2023-02-09T17:31:06.923Z,3.26
2023-02-09T17:33:38.693Z,3.30
2023-02-09T17:36:30.859Z,3.21
2023-02-09T17:39:03.712Z,3.22
2023-02-09T17:41:38.413Z,3.17
2023-02-09T17:44:34.837Z,3.07
2023-02-09T17:47:09.790Z,3.08
2023-02-09T17:49:40.085Z,3.15
2023-02-09T17:52:18.787Z,3.21
2023-02-09T17:54:51.092Z,3.21
2023-02-09T17:57:21.646Z,3.19
2023-02-09T17:59:52.042Z,3.27
2023-02-09T18:02:22.754Z,3.15
2023-02-09T18:04:53.112Z,3.07
2023-02-09T18:07:26.136Z,3.03
2023-02-09T18:09:57.129Z,2.97
2023-02-09T18:12:29.384Z,2.97
2023-02-09T18:14:59.787Z,2.97
2023-02-09T18:17:30.346Z,2.83
2023-02-09T18:20:00.754Z,2.71
2023-02-09T18:22:33.749Z,2.63
2023-02-09T18:25:04.048Z,2.61
2023-02-09T18:27:34.410Z,2.52
2023-02-09T18:30:04.771Z,2.50
2023-02-09T18:32:35.100Z,2.43
2023-02-09T18:35:05.598Z,2.38
2023-02-09T18:37:38.792Z,2.29
2023-02-09T18:40:09.860Z,2.14
2023-02-09T18:42:40.213Z,1.99
2023-02-09T18:45:13.069Z,1.95
2023-02-09T18:47:43.476Z,1.92
2023-02-09T18:50:18.075Z,1.94
2023-02-09T18:52:54.196Z,2.01
2023-02-09T18:55:28.137Z,1.99
2023-02-09T18:57:59.960Z,1.92
2023-02-09T19:00:31.356Z,1.88
2023-02-09T19:03:01.897Z,1.82
2023-02-09T19:05:35.243Z,1.79
2023-02-09T19:08:10.195Z,1.80
2023-02-09T19:10:40.734Z,1.75
2023-02-09T19:13:11.183Z,1.70
2023-02-09T19:15:42.408Z,1.70
2023-02-09T19:18:12.869Z,1.67
2023-02-09T19:20:43.134Z,1.70
2023-02-09T19:23:16.100Z,1.58
2023-02-09T19:25:46.691Z,1.54
2023-02-09T19:28:17.692Z,1.54
2023-02-09T19:30:48.083Z,1.61
2023-02-09T19:33:18.499Z,1.67
2023-02-09T19:35:48.962Z,1.62
2023-02-09T19:38:22.007Z,1.67
2023-02-09T19:41:05.112Z,1.70
2023-02-09T19:43:39.946Z,1.68
2023-02-09T19:46:11.344Z,1.65
2023-02-09T19:48:42.420Z,1.66
2023-02-09T19:51:12.797Z,1.62
2023-02-09T19:53:45.814Z,1.67
2023-02-09T19:56:19.566Z,1.61
2023-02-09T19:58:50.242Z,1.62
2023-02-09T20:01:21.938Z,1.65
2023-02-09T20:03:52.490Z,1.81
2023-02-09T20:06:22.998Z,1.77
2023-02-09T20:08:55.923Z,1.65
2023-02-09T20:11:26.300Z,1.64
2023-02-09T20:13:57.629Z,1.70
2023-02-09T20:16:30.327Z,1.77
2023-02-09T20:19:00.703Z,1.76
2023-02-09T20:21:31.001Z,1.80
2023-02-09T20:24:09.488Z,1.76
2023-02-09T20:26:39.870Z,1.69
2023-02-09T20:29:11.316Z,1.66
2023-02-09T20:31:44.756Z,1.60
2023-02-09T20:34:17.956Z,1.57
2023-02-09T20:36:50.694Z,1.61
2023-02-09T20:39:24.218Z,1.61
2023-02-09T20:42:11.697Z,1.58
2023-02-09T20:44:54.624Z,1.51
2023-02-09T20:47:26.157Z,1.41
2023-02-09T20:50:00.255Z,1.39
2023-02-09T20:52:31.507Z,1.34
2023-02-09T20:55:04.600Z,1.27
2023-02-09T20:57:35.042Z,1.21
2023-02-09T21:00:08.920Z,1.31
2023-02-09T21:02:41.182Z,1.34
2023-02-09T21:05:12.326Z,1.30
2023-02-09T21:07:42.829Z,1.25
2023-02-09T21:10:16.223Z,1.16
2023-02-09T21:12:47.137Z,1.11
2023-02-09T21:15:18.060Z,1.06
2023-02-09T21:17:49.095Z,0.98
2023-02-09T21:20:20.587Z,0.95
2023-02-09T21:22:51.764Z,0.80
2023-02-09T21:25:25.337Z,0.78
2023-02-09T21:27:55.875Z,0.80
2023-02-09T21:30:26.308Z,0.81
2023-02-09T21:33:00.500Z,0.74
2023-02-09T21:35:31.115Z,0.71
2023-02-09T21:38:01.569Z,0.71
2023-02-09T21:40:34.603Z,0.71
2023-02-09T21:43:04.926Z,0.86
2023-02-09T21:45:35.428Z,1.00
2023-02-09T21:48:05.917Z,1.07
2023-02-09T21:50:36.469Z,1.08
2023-02-09T21:53:06.934Z,1.06
2023-02-09T21:55:39.871Z,0.97
2023-02-09T21:58:10.136Z,0.94
2023-02-09T22:00:40.507Z,0.91
2023-02-09T22:03:10.763Z,0.91
2023-02-09T22:05:41.143Z,0.81
2023-02-09T22:08:11.462Z,0.72
2023-02-09T22:10:44.593Z,0.74
2023-02-09T22:13:15.007Z,0.73
2023-02-09T22:15:45.950Z,0.68
2023-02-09T22:18:17.111Z,0.58
2023-02-09T22:20:51.363Z,0.62
2023-02-09T22:23:22.635Z,0.73
2023-02-09T22:26:01.335Z,0.79
2023-02-09T22:28:33.863Z,0.68
2023-02-09T22:31:10.158Z,0.59
2023-02-09T22:33:40.545Z,0.62
2023-02-09T22:36:14.893Z,0.58
2023-02-09T22:38:46.746Z,0.47
2023-02-09T22:41:25.763Z,0.39
2023-02-09T22:43:59.141Z,0.44
2023-02-09T22:46:33.060Z,0.43
2023-02-09T22:49:05.773Z,0.38
2023-02-09T22:51:38.348Z,0.39
2023-02-09T22:54:09.371Z,0.46
2023-02-09T22:56:42.405Z,0.41
2023-02-09T22:59:16.350Z,0.44
2023-02-09T23:01:47.617Z,0.43
2023-02-09T23:04:17.844Z,0.45
2023-02-09T23:06:48.870Z,0.45
2023-02-09T23:09:19.244Z,0.44
2023-02-09T23:11:52.164Z,0.38
2023-02-09T23:14:22.577Z,0.38
2023-02-09T23:16:53.637Z,0.38
2023-02-09T23:19:24.592Z,0.41
2023-02-09T23:21:55.711Z,0.30
2023-02-09T23:24:27.020Z,0.26
2023-02-09T23:27:00.040Z,0.35
2023-02-09T23:29:30.829Z,0.39
2023-02-09T23:32:01.195Z,0.30
2023-02-09T23:34:33.035Z,0.40
2023-02-09T23:37:13.308Z,0.37
2023-02-09T23:39:49.597Z,0.42
2023-02-09T23:42:22.564Z,0.33
2023-02-09T23:44:52.975Z,0.25
2023-02-09T23:47:23.474Z,0.27
2023-02-09T23:49:59.790Z,0.19
2023-02-09T23:52:30.378Z,0.12
2023-02-09T23:55:02.719Z,0.13
2023-02-09T23:57:35.742Z,0.10
